Time;durP1;ratioP1;P1;durP2;ratioP2;P2;SDS_P1;SDS_P2;PMS_P1;PMS_P2;Temp;Humidity;BMP_temperature;BMP_pressure;BME280_temperature;BME280_humidity;BME280_pressure;Samples;Min_cycle;Max_cycle;Signal;HPM_P1;HPM_P2
2023/01/30 00:02:13;;;;;;;38.88;16.40;;;5.60;99.90;;;;;;5010876;28;20045;-77
2023/01/30 00:04:39;;;;;;;35.88;16.13;;;5.80;99.90;;;;;;5011701;28;20064;-78
2023/01/30 00:07:04;;;;;;;30.27;14.65;;;5.80;99.90;;;;;;5010590;28;20042;-77
2023/01/30 00:09:30;;;;;;;35.10;16.00;;;5.80;99.90;;;;;;5011994;28;20360;-78
2023/01/30 00:11:55;;;;;;;35.45;15.90;;;5.80;99.90;;;;;;5011953;28;20163;-77
2023/01/30 00:14:21;;;;;;;33.90;15.48;;;5.80;99.90;;;;;;5011691;28;20278;-78
2023/01/30 00:16:47;;;;;;;36.67;17.02;;;5.80;99.90;;;;;;5011926;28;20034;-76
2023/01/30 00:19:13;;;;;;;31.95;14.45;;;5.80;99.90;;;;;;5012044;28;20255;-78
2023/01/30 00:21:38;;;;;;;40.00;16.90;;;5.80;99.90;;;;;;5012537;28;20033;-77
2023/01/30 00:24:04;;;;;;;43.50;16.35;;;5.90;99.90;;;;;;5010692;28;20127;-77
2023/01/30 00:26:30;;;;;;;36.38;15.85;;;5.80;99.90;;;;;;5011385;28;20030;-77
2023/01/30 00:28:56;;;;;;;35.90;16.50;;;5.90;99.90;;;;;;5012621;28;20037;-77
2023/01/30 00:31:21;;;;;;;36.47;16.30;;;5.90;99.90;;;;;;5013104;28;20026;-77
2023/01/30 00:33:47;;;;;;;38.90;15.88;;;5.90;99.90;;;;;;5012220;28;20018;-78
2023/01/30 00:36:12;;;;;;;32.22;15.68;;;5.80;99.90;;;;;;5012869;28;20033;-77
2023/01/30 00:38:38;;;;;;;37.55;16.88;;;5.70;99.90;;;;;;5011652;28;20113;-77
2023/01/30 00:41:04;;;;;;;37.50;16.52;;;5.60;99.90;;;;;;5011703;28;20479;-75
2023/01/30 00:49:06;;;;;;;31.58;15.35;;;5.80;99.90;;;;;;5011536;28;20044;-78
2023/01/30 00:51:31;;;;;;;36.97;18.10;;;5.90;99.90;;;;;;5012135;28;20037;-76
2023/01/30 00:53:57;;;;;;;40.80;17.65;;;5.90;99.90;;;;;;5011636;28;20034;-78
2023/01/30 00:56:23;;;;;;;36.03;17.40;;;5.90;99.90;;;;;;5011207;28;20052;-77
2023/01/30 00:58:49;;;;;;;37.42;17.73;;;5.80;99.90;;;;;;5011018;28;20413;-79
2023/01/30 01:01:14;;;;;;;33.20;16.55;;;5.90;99.90;;;;;;5009755;28;20038;-77
2023/01/30 01:03:40;;;;;;;41.00;17.42;;;5.90;99.90;;;;;;5011739;28;20026;-77
2023/01/30 01:06:06;;;;;;;38.65;17.40;;;5.90;99.90;;;;;;5011750;28;20033;-79
2023/01/30 01:08:32;;;;;;;34.42;16.13;;;5.90;99.90;;;;;;5011081;28;20038;-77
2023/01/30 01:10:57;;;;;;;35.60;17.85;;;5.90;99.90;;;;;;5010009;28;20369;-77
2023/01/30 01:13:23;;;;;;;40.20;17.60;;;5.90;99.90;;;;;;5010834;28;20133;-78
2023/01/30 01:15:49;;;;;;;42.00;18.05;;;5.90;99.90;;;;;;5010001;28;20364;-77
2023/01/30 01:18:15;;;;;;;40.22;17.92;;;5.90;99.90;;;;;;5011682;28;20103;-77
2023/01/30 01:20:40;;;;;;;40.30;18.33;;;5.90;99.90;;;;;;5012054;28;20125;-78
2023/01/30 01:23:08;;;;;;;42.03;19.27;;;6.00;99.90;;;;;;5011187;28;20034;-76
2023/01/30 01:25:34;;;;;;;38.90;17.63;;;6.00;99.90;;;;;;5010790;28;20052;-76
2023/01/30 01:28:00;;;;;;;39.28;18.77;;;6.10;99.90;;;;;;5010490;28;20046;-77
2023/01/30 01:30:26;;;;;;;45.40;18.38;;;6.10;99.90;;;;;;5011203;28;20083;-77
2023/01/30 01:32:51;;;;;;;44.08;18.40;;;6.00;99.90;;;;;;5009638;28;20034;-78
2023/01/30 01:35:18;;;;;;;45.67;19.67;;;6.00;99.90;;;;;;5010541;28;20473;-77
2023/01/30 01:37:44;;;;;;;42.03;19.15;;;5.80;99.90;;;;;;5010708;28;20038;-76
2023/01/30 01:43:02;;;;;;;33.80;17.15;;;5.90;99.90;;;;;;5010974;28;20037;-76
2023/01/30 01:45:28;;;;;;;39.63;17.35;;;5.90;99.90;;;;;;5011284;28;20876;-76
2023/01/30 01:47:57;;;;;;;36.50;17.75;;;5.90;99.90;;;;;;5009478;28;20116;-78
2023/01/30 01:50:52;;;;;;;34.33;16.73;;;5.80;99.90;;;;;;5010617;28;20034;-77
2023/01/30 01:53:23;;;;;;;36.05;16.63;;;5.80;99.90;;;;;;5010816;28;20097;-76
2023/01/30 01:55:51;;;;;;;34.38;16.33;;;5.90;99.90;;;;;;5011518;28;20460;-78
2023/01/30 01:58:39;;;;;;;34.40;15.73;;;5.90;99.90;;;;;;5014313;28;20034;-76
2023/01/30 02:01:05;;;;;;;;;;;5.80;99.90;;;;;;5014679;28;20580;-78
2023/01/30 02:03:36;;;;;;;36.55;15.00;;;5.80;99.90;;;;;;5013563;28;19909;-77
2023/01/30 02:06:03;;;;;;;28.50;13.50;;;5.80;99.90;;;;;;5012926;28;20045;-78
2023/01/30 02:08:36;;;;;;;30.48;14.07;;;5.90;99.90;;;;;;5014225;28;20464;-77
2023/01/30 02:11:10;;;;;;;30.13;14.90;;;5.80;99.90;;;;;;5014100;28;20034;-77
2023/01/30 02:13:36;;;;;;;30.73;14.93;;;5.90;99.90;;;;;;5014107;28;20057;-77
2023/01/30 02:16:05;;;;;;;33.00;16.27;;;6.00;99.90;;;;;;5014054;28;20065;-77
2023/01/30 02:18:36;;;;;;;35.75;15.85;;;5.90;99.90;;;;;;5014523;28;20026;-77
2023/01/30 02:21:44;;;;;;;32.25;15.50;;;6.10;99.90;;;;;;5013917;28;20029;-78
2023/01/30 02:24:29;;;;;;;31.63;14.93;;;6.10;99.90;;;;;;5013987;28;20480;-76
2023/01/30 02:27:26;;;;;;;39.90;16.60;;;6.10;99.90;;;;;;5012523;28;20534;-77
2023/01/30 02:30:28;;;;;;;35.85;16.13;;;6.20;99.90;;;;;;5013848;28;20092;-77
2023/01/30 02:33:06;;;;;;;31.33;14.38;;;6.10;99.90;;;;;;5013641;28;20363;-77
2023/01/30 02:35:58;;;;;;;36.10;16.40;;;6.10;99.90;;;;;;5007549;28;20034;-76
2023/01/30 02:38:24;;;;;;;38.80;16.58;;;6.00;99.90;;;;;;4992634;28;20026;-78
2023/01/30 02:41:08;;;;;;;32.45;15.82;;;6.20;99.90;;;;;;4994301;28;20061;-78
2023/01/30 02:43:58;;;;;;;37.55;17.40;;;6.20;99.90;;;;;;4993785;28;20486;-78
2023/01/30 02:46:31;;;;;;;39.80;17.00;;;6.20;99.90;;;;;;4993735;28;20049;-77
2023/01/30 02:49:21;;;;;;;36.83;16.98;;;6.10;99.90;;;;;;4992631;28;20080;-78
2023/01/30 02:51:49;;;;;;;40.78;17.63;;;6.10;99.90;;;;;;4993785;28;20065;-77
2023/01/30 02:54:15;;;;;;;36.38;17.02;;;6.20;99.90;;;;;;4994322;28;20049;-78
2023/01/30 02:56:51;;;;;;;41.35;18.20;;;6.20;99.90;;;;;;4992657;28;20030;-79
2023/01/30 02:59:22;;;;;;;39.47;17.05;;;6.30;99.90;;;;;;4992667;28;20512;-77
2023/01/30 03:02:19;;;;;;;37.78;18.02;;;6.30;99.90;;;;;;4992376;28;20168;-77
2023/01/30 03:04:51;;;;;;;32.20;16.23;;;6.30;99.90;;;;;;4992358;28;20038;-77
2023/01/30 03:07:35;;;;;;;36.83;17.75;;;6.30;99.90;;;;;;4992041;28;20105;-77
2023/01/30 03:10:10;;;;;;;34.25;17.25;;;6.20;99.90;;;;;;4992203;28;20156;-77
2023/01/30 03:13:07;;;;;;;38.38;16.65;;;6.30;99.90;;;;;;4993794;28;20077;-78
2023/01/30 03:15:45;;;;;;;37.65;16.67;;;6.30;99.90;;;;;;4993736;28;20587;-77
2023/01/30 03:18:10;;;;;;;;;;;6.40;99.90;;;;;;4992718;28;20045;-76
2023/01/30 03:20:38;;;;;;;37.28;16.92;;;6.40;99.90;;;;;;4992808;28;19914;-78
2023/01/30 03:23:03;;;;;;;43.70;18.15;;;6.40;99.90;;;;;;4991351;28;20456;-77
2023/01/30 03:25:30;;;;;;;40.72;18.83;;;6.50;99.90;;;;;;4992929;28;20034;-77
2023/01/30 03:27:56;;;;;;;40.08;18.02;;;6.40;99.90;;;;;;4992990;28;20044;-78
2023/01/30 03:30:24;;;;;;;40.67;17.83;;;6.40;99.90;;;;;;4993610;28;20031;-78
2023/01/30 03:32:50;;;;;;;37.55;17.45;;;6.30;99.90;;;;;;4992200;28;20026;-77
2023/01/30 03:35:16;;;;;;;37.47;17.67;;;6.40;99.90;;;;;;4992128;28;20034;-78
2023/01/30 03:37:43;;;;;;;38.25;18.05;;;6.40;99.90;;;;;;4993006;28;20089;-77
2023/01/30 03:40:10;;;;;;;41.65;19.48;;;6.40;99.90;;;;;;4992759;28;20023;-78
2023/01/30 03:42:36;;;;;;;43.15;18.67;;;6.40;99.90;;;;;;4993336;28;20026;-77
2023/01/30 03:45:01;;;;;;;40.65;17.63;;;6.40;99.90;;;;;;4992861;28;20495;-76
2023/01/30 03:47:27;;;;;;;36.92;17.25;;;6.50;99.90;;;;;;4992845;28;20034;-77
2023/01/30 03:49:53;;;;;;;35.00;17.38;;;6.40;99.90;;;;;;4992727;28;20049;-77
2023/01/30 03:52:19;;;;;;;37.72;16.92;;;6.50;99.90;;;;;;4992607;28;20041;-78
2023/01/30 03:54:44;;;;;;;40.70;16.45;;;6.50;99.90;;;;;;4991557;28;20054;-78
2023/01/30 03:57:10;;;;;;;35.80;16.92;;;6.40;99.90;;;;;;4993033;28;20480;-78
2023/01/30 03:59:35;;;;;;;38.25;16.55;;;6.50;99.90;;;;;;4992287;28;20477;-78
2023/01/30 04:02:01;;;;;;;35.15;16.10;;;6.50;99.90;;;;;;4992243;28;20054;-78
2023/01/30 04:04:27;;;;;;;31.75;15.43;;;6.60;99.90;;;;;;4992136;28;20034;-78
2023/01/30 04:06:52;;;;;;;33.00;15.27;;;6.50;99.90;;;;;;4991518;28;20053;-78
2023/01/30 04:09:18;;;;;;;25.25;14.10;;;6.60;99.90;;;;;;4992604;28;20100;-77
2023/01/30 04:11:44;;;;;;;26.77;13.07;;;6.50;99.90;;;;;;4992140;28;20062;-78
2023/01/30 04:14:10;;;;;;;22.02;11.77;;;6.70;99.90;;;;;;4991935;28;20370;-78
2023/01/30 04:16:36;;;;;;;26.17;13.10;;;6.70;99.90;;;;;;4992343;28;20061;-77
2023/01/30 04:19:01;;;;;;;27.58;12.60;;;6.70;99.90;;;;;;4991519;28;20524;-78
2023/01/30 04:21:27;;;;;;;27.90;12.95;;;6.70;99.90;;;;;;4992680;28;20473;-77
2023/01/30 04:23:53;;;;;;;25.58;12.10;;;6.70;99.90;;;;;;4992087;28;20428;-77
2023/01/30 04:26:18;;;;;;;26.88;13.32;;;6.80;99.90;;;;;;4991501;28;20034;-77
2023/01/30 04:28:44;;;;;;;22.33;10.88;;;6.80;99.90;;;;;;4991503;28;20539;-77
2023/01/30 04:31:10;;;;;;;23.17;11.32;;;6.80;99.90;;;;;;4991620;28;20061;-76
2023/01/30 04:33:38;;;;;;;23.83;11.60;;;6.90;99.90;;;;;;4990960;28;20041;-77
2023/01/30 04:36:05;;;;;;;22.30;11.88;;;6.80;99.90;;;;;;4990597;28;20507;-78
2023/01/30 04:38:33;;;;;;;26.35;11.40;;;6.80;99.90;;;;;;4991549;28;20065;-77
2023/01/30 04:40:59;;;;;;;20.13;11.43;;;6.80;99.90;;;;;;4991883;28;20050;-76
2023/01/30 04:43:26;;;;;;;21.60;9.68;;;6.90;99.90;;;;;;4991517;28;20022;-76
2023/01/30 04:45:52;;;;;;;17.45;9.48;;;6.90;99.90;;;;;;4991861;28;20045;-77
2023/01/30 04:48:19;;;;;;;18.15;9.43;;;6.80;99.90;;;;;;4992935;28;20026;-78
2023/01/30 04:50:48;;;;;;;17.00;8.52;;;6.80;99.90;;;;;;4991546;28;20030;-76
2023/01/30 04:53:15;;;;;;;16.95;7.97;;;6.90;99.90;;;;;;4992564;28;20026;-77
2023/01/30 04:55:40;;;;;;;16.10;8.57;;;7.00;99.90;;;;;;4991488;28;20125;-78
2023/01/30 04:58:06;;;;;;;13.15;7.30;;;7.00;99.90;;;;;;4991068;28;20177;-78
2023/01/30 05:00:32;;;;;;;17.10;7.68;;;7.00;99.90;;;;;;4991559;28;20034;-78
2023/01/30 05:02:57;;;;;;;11.77;6.85;;;7.20;99.90;;;;;;4991166;28;20031;-79
2023/01/30 05:05:25;;;;;;;14.48;7.18;;;7.20;99.90;;;;;;4991126;28;20038;-77
2023/01/30 05:07:51;;;;;;;9.87;5.90;;;7.10;99.90;;;;;;4991083;28;20035;-79
2023/01/30 05:10:17;;;;;;;13.88;7.25;;;7.10;99.90;;;;;;4991060;28;20155;-77
2023/01/30 05:12:43;;;;;;;10.55;6.15;;;7.00;99.90;;;;;;4991250;28;20392;-77
2023/01/30 05:15:10;;;;;;;12.02;6.68;;;7.10;99.90;;;;;;4990701;28;20089;-77
2023/01/30 05:17:36;;;;;;;14.20;7.03;;;7.10;99.90;;;;;;4991229;28;20041;-77
2023/01/30 05:20:01;;;;;;;9.98;6.28;;;7.20;99.90;;;;;;4991365;28;20026;-79
2023/01/30 05:22:27;;;;;;;11.77;5.88;;;7.20;99.90;;;;;;4991095;28;20428;-78
2023/01/30 05:24:53;;;;;;;11.05;5.93;;;7.20;99.90;;;;;;4990952;28;20404;-76
2023/01/30 05:27:18;;;;;;;11.02;5.88;;;7.20;99.90;;;;;;4991077;28;20445;-78
2023/01/30 05:29:44;;;;;;;10.50;6.07;;;7.30;99.90;;;;;;4991274;28;20520;-77
2023/01/30 05:32:15;;;;;;;15.18;7.07;;;7.40;99.90;;;;;;4995151;28;20027;-76
2023/01/30 05:34:41;;;;;;;10.93;6.57;;;7.20;99.90;;;;;;4994018;28;20464;-77
2023/01/30 05:37:07;;;;;;;12.38;6.90;;;7.30;99.90;;;;;;4995181;28;20464;-77
2023/01/30 05:39:33;;;;;;;14.88;7.32;;;7.30;99.90;;;;;;4995573;28;20045;-78
2023/01/30 05:41:59;;;;;;;10.32;6.20;;;7.20;99.90;;;;;;4995068;28;20031;-77
2023/01/30 05:44:24;;;;;;;11.80;6.50;;;7.20;99.90;;;;;;4994980;28;20387;-79
2023/01/30 05:46:50;;;;;;;9.82;5.95;;;7.10;99.90;;;;;;4993848;28;20026;-77
2023/01/30 05:49:16;;;;;;;12.50;6.55;;;7.30;99.90;;;;;;4994763;28;20030;-77
2023/01/30 05:51:41;;;;;;;12.45;6.38;;;7.20;99.90;;;;;;4994821;28;20105;-77
2023/01/30 05:54:07;;;;;;;10.35;6.50;;;7.30;99.90;;;;;;4993996;28;20022;-79
2023/01/30 05:56:33;;;;;;;12.35;6.97;;;7.20;99.90;;;;;;4994651;28;20122;-78
2023/01/30 05:59:00;;;;;;;12.95;6.82;;;7.30;99.90;;;;;;4994620;28;20330;-78
2023/01/30 06:01:27;;;;;;;15.07;6.93;;;7.20;99.90;;;;;;4994807;28;20034;-78
2023/01/30 06:03:54;;;;;;;10.13;5.93;;;7.30;99.90;;;;;;4994671;28;20363;-78
2023/01/30 06:06:21;;;;;;;12.32;6.68;;;7.30;99.90;;;;;;4993821;28;20105;-78
2023/01/30 06:08:47;;;;;;;13.40;6.57;;;7.30;99.90;;;;;;4994426;28;20033;-79
2023/01/30 06:11:15;;;;;;;10.52;6.53;;;7.30;99.90;;;;;;4994525;28;20487;-77
2023/01/30 06:13:41;;;;;;;14.75;7.60;;;7.30;99.90;;;;;;4993576;28;20054;-78
2023/01/30 06:16:08;;;;;;;12.82;6.35;;;7.40;99.90;;;;;;4993321;28;20464;-78
2023/01/30 06:18:34;;;;;;;12.07;5.80;;;7.40;99.90;;;;;;4995179;28;20302;-79
2023/01/30 06:21:00;;;;;;;10.15;5.00;;;7.40;99.90;;;;;;4994274;28;20042;-77
2023/01/30 06:23:26;;;;;;;14.02;5.90;;;7.50;99.90;;;;;;4993453;28;20034;-78
2023/01/30 06:25:54;;;;;;;8.05;4.50;;;7.50;99.90;;;;;;4994356;28;20046;-79
2023/01/30 06:28:21;;;;;;;9.10;4.45;;;7.50;99.90;;;;;;4994191;28;20034;-77
2023/01/30 06:30:47;;;;;;;11.73;4.85;;;7.50;99.90;;;;;;4993788;28;20076;-78
2023/01/30 06:33:13;;;;;;;9.15;4.80;;;7.40;99.90;;;;;;4993424;28;20037;-78
2023/01/30 06:35:40;;;;;;;9.95;4.53;;;7.40;99.90;;;;;;4994112;28;20031;-79
2023/01/30 06:38:10;;;;;;;11.07;5.00;;;7.50;99.90;;;;;;4994093;28;20062;-78
2023/01/30 06:40:46;;;;;;;9.88;4.82;;;7.50;99.90;;;;;;4994108;28;20121;-77
2023/01/30 06:43:11;;;;;;;10.95;5.22;;;7.50;99.90;;;;;;4993629;28;20022;-78
2023/01/30 06:45:37;;;;;;;11.95;5.15;;;7.70;99.90;;;;;;4994669;28;20018;-78
2023/01/30 06:48:03;;;;;;;15.93;4.70;;;7.70;99.90;;;;;;4994091;28;20035;-76
2023/01/30 06:50:30;;;;;;;11.88;5.13;;;7.60;99.90;;;;;;4994156;28;20061;-78
2023/01/30 06:52:56;;;;;;;14.40;4.97;;;7.60;99.90;;;;;;4993857;28;20026;-78
2023/01/30 06:55:25;;;;;;;10.77;5.03;;;7.60;99.90;;;;;;4992416;28;20041;-78
2023/01/30 06:58:01;;;;;;;12.05;5.35;;;7.60;99.90;;;;;;4992660;28;20027;-77
2023/01/30 07:00:27;;;;;;;11.20;4.95;;;7.60;99.90;;;;;;4992952;28;20353;-78
2023/01/30 07:02:52;;;;;;;14.52;4.85;;;7.60;99.90;;;;;;4992753;28;20045;-78
2023/01/30 07:05:18;;;;;;;16.73;4.70;;;7.60;99.90;;;;;;4993217;28;20026;-78
2023/01/30 07:07:44;;;;;;;14.45;4.13;;;7.60;99.90;;;;;;4993474;28;20037;-78
2023/01/30 07:10:11;;;;;;;17.48;4.03;;;7.70;99.90;;;;;;4992031;28;20365;-76
2023/01/30 07:12:37;;;;;;;21.67;4.70;;;7.60;99.90;;;;;;4994775;28;20062;-77
2023/01/30 07:15:05;;;;;;;12.25;3.60;;;7.60;99.90;;;;;;4993399;28;20057;-79
2023/01/30 07:17:31;;;;;;;19.73;4.13;;;7.70;99.90;;;;;;4993239;28;20031;-78
2023/01/30 07:19:57;;;;;;;15.93;4.00;;;7.80;99.90;;;;;;4992830;28;20030;-79
2023/01/30 07:22:23;;;;;;;11.98;3.65;;;7.80;99.90;;;;;;4999271;28;20048;-88
2023/01/30 07:24:48;;;;;;;30.80;9.95;;;7.70;99.90;;;;;;5015241;28;20022;-84
2023/01/30 07:27:14;;;;;;;17.55;6.03;;;7.70;99.90;;;;;;5012096;28;20068;-81
2023/01/30 07:29:40;;;;;;;13.55;3.45;;;7.70;99.90;;;;;;5011569;28;20113;-79
2023/01/30 07:32:08;;;;;;;16.27;3.60;;;7.80;99.90;;;;;;5015470;28;20033;-89
2023/01/30 07:34:34;;;;;;;18.20;3.53;;;7.70;99.90;;;;;;5017182;28;20034;-85
2023/01/30 07:37:00;;;;;;;13.82;3.30;;;7.80;99.90;;;;;;5012544;28;20080;-82
2023/01/30 07:39:25;;;;;;;10.02;3.03;;;7.90;99.90;;;;;;5016901;28;20096;-86
2023/01/30 07:41:51;;;;;;;20.38;2.75;;;7.80;99.90;;;;;;5013880;28;20037;-83
2023/01/30 07:44:16;;;;;;;15.00;2.63;;;7.80;99.90;;;;;;5004645;28;20030;-80
2023/01/30 07:46:42;;;;;;;16.17;2.75;;;7.70;99.90;;;;;;5013590;28;20037;-80
2023/01/30 07:49:08;;;;;;;23.05;2.63;;;7.70;99.90;;;;;;5006181;28;20104;-81
2023/01/30 07:51:34;;;;;;;18.25;3.05;;;7.80;99.90;;;;;;5013488;28;20030;-81
2023/01/30 07:54:00;;;;;;;15.57;3.20;;;7.70;99.90;;;;;;5012341;28;20093;-82
2023/01/30 07:56:27;;;;;;;25.00;2.30;;;7.80;99.90;;;;;;5015602;28;20034;-87
2023/01/30 07:58:54;;;;;;;13.77;2.50;;;7.70;99.90;;;;;;5014504;28;20081;-81
2023/01/30 08:01:21;;;;;;;12.10;3.22;;;7.70;99.90;;;;;;5010788;28;20029;-80
2023/01/30 08:03:48;;;;;;;16.88;3.28;;;7.60;99.90;;;;;;5016712;28;20029;-89
2023/01/30 08:06:14;;;;;;;13.98;2.38;;;7.70;99.90;;;;;;5017901;28;20030;-86
2023/01/30 08:08:41;;;;;;;20.60;2.40;;;7.70;99.90;;;;;;5018232;28;20022;-86
2023/01/30 08:11:07;;;;;;;11.18;2.03;;;7.60;99.90;;;;;;5013741;28;20034;-80
2023/01/30 08:13:34;;;;;;;22.70;2.30;;;7.90;99.90;;;;;;5013279;28;20034;-83
2023/01/30 08:16:04;;;;;;;26.85;3.25;;;7.70;99.90;;;;;;5014182;28;20387;-80
2023/01/30 08:18:30;;;;;;;7.35;1.73;;;7.80;99.90;;;;;;5017775;28;20041;-79
2023/01/30 08:20:57;;;;;;;14.75;2.00;;;7.80;99.90;;;;;;5013634;28;20082;-77
2023/01/30 08:23:23;;;;;;;15.80;2.60;;;8.00;99.90;;;;;;5012339;28;20490;-77
2023/01/30 08:26:03;;;;;;;16.65;2.28;;;7.90;99.90;;;;;;5012767;28;20056;-80
2023/01/30 08:28:29;;;;;;;13.55;2.30;;;7.90;99.90;;;;;;5013565;28;20129;-81
2023/01/30 08:30:56;;;;;;;18.42;1.95;;;7.90;99.90;;;;;;5013958;28;20080;-79
2023/01/30 08:33:22;;;;;;;15.45;2.03;;;7.80;99.90;;;;;;5014763;28;20022;-82
2023/01/30 08:35:49;;;;;;;20.27;3.80;;;7.90;99.90;;;;;;5014384;28;20092;-81
2023/01/30 08:38:16;;;;;;;24.80;4.00;;;8.00;99.90;;;;;;5012780;28;20042;-79
2023/01/30 08:40:41;;;;;;;24.85;3.20;;;8.00;99.90;;;;;;5012098;28;20036;-83
2023/01/30 08:43:07;;;;;;;20.70;3.00;;;7.90;99.90;;;;;;5013050;28;20025;-80
2023/01/30 08:45:33;;;;;;;29.20;3.17;;;8.00;99.90;;;;;;5013689;28;20026;-79
2023/01/30 08:48:01;;;;;;;18.15;3.22;;;8.00;99.90;;;;;;5013160;28;20026;-79
2023/01/30 08:50:28;;;;;;;14.05;2.00;;;8.00;99.90;;;;;;5007653;28;20044;-79
2023/01/30 08:52:54;;;;;;;13.48;1.85;;;7.90;99.90;;;;;;5012104;28;20038;-85
2023/01/30 08:55:19;;;;;;;15.50;2.80;;;8.10;99.90;;;;;;5012423;28;20479;-86
2023/01/30 08:57:46;;;;;;;16.83;2.58;;;8.00;99.90;;;;;;5016079;28;20426;-94
2023/01/30 09:00:13;;;;;;;34.33;3.45;;;8.00;99.90;;;;;;5017510;28;20356;-94
2023/01/30 09:02:39;;;;;;;15.52;2.75;;;8.00;99.90;;;;;;5018963;28;20063;-93
2023/01/30 09:05:05;;;;;;;13.00;2.80;;;7.90;99.90;;;;;;5017961;28;20042;-91
2023/01/30 09:07:33;;;;;;;23.38;3.10;;;7.90;99.90;;;;;;5017689;28;20026;-95
2023/01/30 09:09:59;;;;;;;23.02;2.95;;;8.00;99.90;;;;;;5017049;28;20045;-85
2023/01/30 09:12:28;;;;;;;15.48;2.05;;;8.10;99.90;;;;;;5018727;28;20099;-96
2023/01/30 09:14:56;;;;;;;27.30;2.97;;;8.10;99.90;;;;;;5018110;28;20033;-87
2023/01/30 09:17:22;;;;;;;21.70;5.35;;;8.20;99.90;;;;;;5016539;28;20030;-80
2023/01/30 09:19:48;;;;;;;19.95;2.90;;;8.40;99.90;;;;;;5014603;28;20087;-83
2023/01/30 09:22:15;;;;;;;22.70;2.55;;;8.40;99.90;;;;;;5014337;28;20417;-79
2023/01/30 09:24:41;;;;;;;22.02;3.00;;;8.40;99.90;;;;;;5014544;28;20024;-83
2023/01/30 09:27:07;;;;;;;18.27;2.85;;;8.30;99.90;;;;;;5013743;28;20046;-82
2023/01/30 09:29:35;;;;;;;17.60;3.05;;;8.30;99.90;;;;;;5023871;28;20368;-91
2023/01/30 09:32:01;;;;;;;17.02;2.90;;;8.30;99.90;;;;;;5022291;28;20037;-86
2023/01/30 09:34:27;;;;;;;25.95;2.83;;;8.30;99.90;;;;;;5028054;28;20052;-94
2023/01/30 09:37:03;;;;;;;20.30;3.47;;;8.40;99.90;;;;;;5026984;28;20037;-84
2023/01/30 09:39:28;;;;;;;20.70;2.92;;;8.20;99.90;;;;;;5026537;28;20049;-88
2023/01/30 09:42:04;;;;;;;20.75;3.17;;;8.30;99.90;;;;;;5021772;28;20038;-89
2023/01/30 09:44:57;;;;;;;17.77;2.35;;;8.30;99.90;;;;;;5027983;28;20038;-94
2023/01/30 09:47:33;;;;;;;28.98;2.88;;;8.20;99.90;;;;;;4997563;28;20053;-85
2023/01/30 09:50:10;;;;;;;21.88;3.17;;;8.30;99.90;;;;;;5009195;28;20495;-82
2023/01/30 09:53:00;;;;;;;21.40;2.80;;;8.40;99.90;;;;;;5014485;28;20033;-85
2023/01/30 09:55:28;;;;;;;20.50;3.22;;;8.50;99.90;;;;;;5012253;28;20139;-80
2023/01/30 09:57:56;;;;;;;19.48;3.45;;;8.50;99.50;;;;;;5013402;28;20048;-80
2023/01/30 10:00:35;;;;;;;16.75;2.63;;;8.60;99.30;;;;;;5012182;28;20359;-80
2023/01/30 10:03:11;;;;;;;23.05;3.08;;;8.70;99.30;;;;;;5010593;28;20034;-81
2023/01/30 10:05:37;;;;;;;17.98;3.63;;;8.80;99.30;;;;;;5011197;28;20088;-81
2023/01/30 10:08:17;;;;;;;16.58;2.83;;;8.60;98.80;;;;;;5010733;28;20539;-82
2023/01/30 10:10:50;;;;;;;20.40;2.83;;;8.60;98.90;;;;;;5012338;28;20037;-86
2023/01/30 10:13:37;;;;;;;14.27;2.63;;;8.70;99.00;;;;;;5020039;28;20086;-83
2023/01/30 10:16:44;;;;;;;25.65;3.25;;;8.80;99.00;;;;;;5017718;28;20041;-83
2023/01/30 10:19:22;;;;;;;17.48;2.58;;;8.50;99.20;;;;;;5025071;28;20192;-88
2023/01/30 10:22:03;;;;;;;20.10;2.97;;;8.60;99.10;;;;;;5031961;28;20022;-86
2023/01/30 10:24:47;;;;;;;24.80;3.50;;;8.60;98.90;;;;;;5025871;28;20018;-83
2023/01/30 10:27:16;;;;;;;24.50;4.28;;;8.60;98.80;;;;;;5024411;28;20124;-82
2023/01/30 10:29:55;;;;;;;19.83;3.17;;;8.60;98.50;;;;;;5019184;28;20048;-80
2023/01/30 10:32:27;;;;;;;19.27;2.63;;;8.60;98.70;;;;;;5016944;28;20050;-83
2023/01/30 10:34:56;;;;;;;26.48;3.15;;;8.60;98.70;;;;;;5015184;28;20124;-77
2023/01/30 10:37:32;;;;;;;24.70;2.70;;;8.70;98.90;;;;;;5015539;28;20068;-80
2023/01/30 10:40:02;;;;;;;23.10;2.75;;;8.90;98.40;;;;;;5017642;28;20348;-83
2023/01/30 10:42:47;;;;;;;15.57;3.10;;;8.90;98.30;;;;;;5018438;28;20070;-83
2023/01/30 10:45:29;;;;;;;23.67;3.13;;;8.90;98.40;;;;;;5015626;28;20100;-80
2023/01/30 10:48:01;;;;;;;25.60;3.92;;;9.00;98.00;;;;;;5016234;28;20468;-84
2023/01/30 10:50:49;;;;;;;19.05;2.50;;;9.00;97.90;;;;;;5019724;28;20026;-86
2023/01/30 10:53:23;;;;;;;22.48;3.05;;;9.10;97.90;;;;;;5014848;28;20088;-81
2023/01/30 10:56:15;;;;;;;22.25;2.88;;;9.30;97.80;;;;;;5015019;28;20701;-84
2023/01/30 10:58:53;;;;;;;20.20;2.80;;;9.60;97.50;;;;;;5007511;28;20500;-82
2023/01/30 11:01:24;;;;;;;23.00;2.80;;;9.90;96.80;;;;;;5016919;28;20029;-87
2023/01/30 11:04:00;;;;;;;18.80;2.78;;;9.90;96.40;;;;;;5016408;28;20432;-81
2023/01/30 11:06:26;;;;;;;31.35;3.28;;;9.80;96.20;;;;;;5018722;28;20076;-77
2023/01/30 11:08:54;;;;;;;15.50;2.10;;;9.50;96.60;;;;;;5017539;28;20427;-78
2023/01/30 11:11:23;;;;;;;21.20;3.13;;;9.50;97.40;;;;;;5016137;28;20034;-76
2023/01/30 11:13:48;;;;;;;;;;;9.20;98.70;;;;;;5014130;28;20295;-79
2023/01/30 11:16:14;;;;;;;19.83;2.58;;;9.00;99.30;;;;;;5012162;28;20064;-75
2023/01/30 11:18:49;;;;;;;18.50;2.65;;;8.90;99.50;;;;;;5013606;28;20452;-78
2023/01/30 11:21:25;;;;;;;16.95;3.35;;;8.80;99.60;;;;;;5012871;28;20506;-84
2023/01/30 11:23:52;;;;;;;15.43;2.55;;;8.50;99.90;;;;;;5013112;28;20036;-75
2023/01/30 11:26:32;;;;;;;24.73;4.35;;;8.60;99.90;;;;;;5012512;28;20051;-78
2023/01/30 11:28:58;;;;;;;20.55;3.08;;;8.40;99.90;;;;;;5012170;28;20133;-76
2023/01/30 11:31:28;;;;;;;19.15;2.47;;;8.30;99.90;;;;;;5012332;28;20206;-77
2023/01/30 11:34:11;;;;;;;24.05;3.35;;;8.30;99.90;;;;;;5012777;28;20033;-78
2023/01/30 11:36:37;;;;;;;11.85;2.75;;;8.20;99.90;;;;;;5012849;28;20029;-75
2023/01/30 11:39:12;;;;;;;18.35;3.10;;;8.20;99.90;;;;;;5011503;28;20113;-78
2023/01/30 11:41:43;;;;;;;64.43;26.20;;;8.10;99.90;;;;;;5011266;28;20034;-77
2023/01/30 11:44:10;;;;;;;25.17;3.47;;;8.20;99.90;;;;;;5012300;28;20048;-79
2023/01/30 11:46:38;;;;;;;20.25;3.08;;;8.40;99.90;;;;;;5012641;28;20042;-78
2023/01/30 11:49:11;;;;;;;20.23;2.42;;;8.30;99.90;;;;;;5013107;28;20091;-77
2023/01/30 11:51:39;;;;;;;18.23;3.60;;;8.20;99.90;;;;;;5013468;28;20078;-80
2023/01/30 11:54:10;;;;;;;20.08;3.20;;;8.50;99.90;;;;;;5011999;28;20137;-80
2023/01/30 11:56:46;;;;;;;23.58;3.35;;;8.40;99.90;;;;;;5013593;28;20179;-85
2023/01/30 11:59:23;;;;;;;24.67;3.20;;;8.40;99.90;;;;;;5018761;28;20034;-81
2023/01/30 12:01:49;;;;;;;11.90;3.47;;;8.60;99.90;;;;;;5017665;28;20044;-83
2023/01/30 12:04:15;;;;;;;25.50;3.83;;;8.40;99.90;;;;;;5015468;28;20113;-88
2023/01/30 12:06:42;;;;;;;17.70;2.50;;;8.30;99.90;;;;;;5018745;28;20417;-87
2023/01/30 12:09:36;;;;;;;21.00;2.80;;;8.30;99.90;;;;;;5016359;28;20112;-87
2023/01/30 12:12:22;;;;;;;13.75;2.72;;;8.30;99.90;;;;;;5019801;28;20034;-92
2023/01/30 12:14:50;;;;;;;19.95;4.03;;;8.10;99.90;;;;;;5016399;28;20034;-87
2023/01/30 12:17:26;;;;;;;12.02;2.92;;;8.00;99.90;;;;;;5017496;28;20030;-83
2023/01/30 12:20:23;;;;;;;21.88;2.45;;;7.70;99.90;;;;;;5013018;28;20026;-86
2023/01/30 12:23:14;;;;;;;19.25;2.60;;;7.60;99.90;;;;;;5013060;28;20036;-77
2023/01/30 12:26:02;;;;;;;13.50;2.17;;;7.70;99.90;;;;;;5013425;28;20038;-85
2023/01/30 12:28:47;;;;;;;18.85;3.20;;;7.70;99.90;;;;;;5016097;28;20045;-92
2023/01/30 12:31:18;;;;;;;16.27;3.10;;;7.70;99.90;;;;;;5014213;28;20026;-84
2023/01/30 12:33:44;;;;;;;11.40;2.28;;;7.90;99.90;;;;;;5012794;28;20037;-84
2023/01/30 12:36:12;;;;;;;13.02;3.05;;;8.10;99.90;;;;;;5011697;28;20029;-82
2023/01/30 12:38:38;;;;;;;13.25;2.70;;;7.80;99.90;;;;;;5011196;28;20030;-82
2023/01/30 12:41:33;;;;;;;18.50;2.95;;;8.00;99.90;;;;;;5011515;28;20041;-89
2023/01/30 12:44:11;;;;;;;17.02;2.58;;;7.80;99.90;;;;;;5015825;28;20034;-83
2023/01/30 12:46:55;;;;;;;17.73;2.33;;;7.70;99.90;;;;;;5020087;28;20045;-90
2023/01/30 12:49:39;;;;;;;21.08;2.67;;;7.60;99.90;;;;;;5014522;28;20334;-88
2023/01/30 12:52:29;;;;;;;13.30;2.42;;;7.50;99.90;;;;;;5018978;28;20104;-80
2023/01/30 12:55:27;;;;;;;14.35;2.25;;;7.60;99.90;;;;;;5015157;28;20022;-88
2023/01/30 12:58:06;;;;;;;19.15;2.10;;;7.60;99.90;;;;;;5016591;28;20375;-88
2023/01/30 13:00:51;;;;;;;10.88;1.95;;;7.70;99.90;;;;;;5024622;28;20033;-91
2023/01/30 13:04:07;;;;;;;8.38;1.30;;;7.50;99.90;;;;;;5017254;28;20496;-82
2023/01/30 13:06:59;;;;;;;9.68;1.23;;;7.40;99.90;;;;;;4992763;28;20035;-96
2023/01/30 13:09:57;;;;;;;7.07;1.33;;;7.60;99.90;;;;;;4974695;28;20038;-82
2023/01/30 13:12:25;;;;;;;;;;;7.70;99.90;;;;;;5013171;28;20030;-83